Time;durP1;ratioP1;P1;durP2;ratioP2;P2;SDS_P1;SDS_P2;PMS_P1;PMS_P2;Temp;Humidity;BMP_temperature;BMP_pressure;BME280_temperature;BME280_humidity;BME280_pressure;Samples;Min_cycle;Max_cycle;Signal;HPM_P1;HPM_P2
2021/12/16 00:09:26;;;;;;;;;;;21.80;52.20;;;;;;5051317;28;20024;-49
2021/12/16 00:34:10;;;;;;;;;;;21.90;52.30;;;;;;5015232;28;19925;-52
2021/12/16 00:36:38;;;;;;;;;;;21.90;52.30;;;;;;5015219;28;19925;-51
2021/12/16 00:39:13;;;;;;;;;;;21.80;52.20;;;;;;5015138;28;19926;-56
2021/12/16 00:41:43;;;;;;;;;;;21.80;52.20;;;;;;5015094;28;19925;-51
2021/12/16 00:54:44;;;;;;;;;;;21.90;52.30;;;;;;5054575;28;19929;-58
2021/12/16 00:57:14;;;;;;;;;;;21.80;52.20;;;;;;5095728;28;19924;-53
2021/12/16 00:59:45;;;;;;;;;;;21.80;52.20;;;;;;5117245;28;19924;-47
2021/12/16 01:02:30;;;;;;;;;;;21.80;52.20;;;;;;5116989;27;20409;-53
2021/12/16 01:36:03;;;;;;;;;;;21.80;52.20;;;;;;5116808;28;19924;-46
2021/12/16 01:51:54;;;;;;;;;;;21.80;52.20;;;;;;5116498;28;19947;-51
2021/12/16 01:57:32;;;;;;;;;;;21.80;52.30;;;;;;5116059;28;19924;-52
2021/12/16 02:00:02;;;;;;;;;;;21.80;52.20;;;;;;5115887;28;19939;-51
2021/12/16 02:10:23;;;;;;;;;;;21.80;52.30;;;;;;5115698;28;19949;-56
2021/12/16 02:30:02;;;;;;;;;;;21.80;52.20;;;;;;5115318;28;19924;-52
2021/12/16 02:32:46;;;;;;;;;;;21.70;52.20;;;;;;5114301;28;19967;-49
2021/12/16 02:37:34;;;;;;;;;;;21.80;52.30;;;;;;5115214;28;19924;-50
2021/12/16 02:40:03;;;;;;;;;;;21.80;52.30;;;;;;5115162;28;19923;-50
2021/12/16 02:42:35;;;;;;;;;;;21.80;52.30;;;;;;5114973;28;19927;-49
2021/12/16 02:50:20;;;;;;;;;;;21.70;52.20;;;;;;5114969;28;19932;-54
2021/12/16 02:52:47;;;;;;;;;;;21.80;52.30;;;;;;5097022;28;20291;-50
2021/12/16 02:55:15;;;;;;;;;;;21.80;52.30;;;;;;5115192;28;19927;-52
2021/12/16 02:57:51;;;;;;;;;;;21.70;52.20;;;;;;5097115;28;20336;-54
2021/12/16 03:00:18;;;;;;;;;;;21.70;52.20;;;;;;5114839;28;19927;-55
2021/12/16 03:02:47;;;;;;;;;;;21.70;52.20;;;;;;5113996;28;19924;-52
2021/12/16 03:05:15;;;;;;;;;;;21.70;52.20;;;;;;5115064;28;19927;-56
2021/12/16 03:07:42;;;;;;;;;;;21.80;52.30;;;;;;5114994;28;19931;-53
2021/12/16 03:13:09;;;;;;;;;;;21.70;52.20;;;;;;5114656;28;19953;-51
2021/12/16 03:15:59;;;;;;;;;;;21.70;52.20;;;;;;5114600;28;20333;-49
2021/12/16 03:21:30;;;;;;;;;;;21.70;52.20;;;;;;5058202;28;19924;-53
2021/12/16 03:37:15;;;;;;;;;;;21.80;52.30;;;;;;5073759;28;20375;-52
2021/12/16 03:40:03;;;;;;;;;;;21.70;52.20;;;;;;5073483;28;19925;-48
2021/12/16 03:42:33;;;;;;;;;;;21.70;52.30;;;;;;5074624;28;19990;-56
2021/12/16 03:45:06;;;;;;;;;;;21.70;52.20;;;;;;5073856;28;19979;-54
2021/12/16 03:47:41;;;;;;;;;;;21.70;52.20;;;;;;5072656;28;19978;-52
2021/12/16 03:50:11;;;;;;;;;;;21.70;52.20;;;;;;5073857;28;19924;-50
2021/12/16 03:52:38;;;;;;;;;;;21.70;52.30;;;;;;5073663;28;19925;-47
2021/12/16 03:55:07;;;;;;;;;;;21.70;52.30;;;;;;5075180;28;19925;-48
2021/12/16 03:57:34;;;;;;;;;;;21.70;52.20;;;;;;5077998;28;19929;-48
2021/12/16 04:00:05;;;;;;;;;;;21.80;52.40;;;;;;5077903;28;19924;-46
2021/12/16 04:02:33;;;;;;;;;;;21.70;52.20;;;;;;5076381;28;19924;-50
2021/12/16 04:05:00;;;;;;;;;;;21.70;52.20;;;;;;5077540;28;19928;-48
2021/12/16 04:07:29;;;;;;;;;;;21.70;52.30;;;;;;5077828;28;20003;-55
2021/12/16 04:09:56;;;;;;;;;;;21.70;52.30;;;;;;5077658;28;19978;-49
2021/12/16 04:12:25;;;;;;;;;;;21.70;52.30;;;;;;5077695;28;19925;-52
2021/12/16 04:14:53;;;;;;;;;;;21.70;52.30;;;;;;5077554;28;19994;-51
2021/12/16 04:17:21;;;;;;;;;;;21.70;52.30;;;;;;5076565;28;19924;-56
2021/12/16 04:19:49;;;;;;;;;;;21.70;52.30;;;;;;5097141;28;20287;-47
2021/12/16 04:22:18;;;;;;;;;;;21.70;52.30;;;;;;5117990;28;19931;-51
2021/12/16 04:24:46;;;;;;;;;;;21.70;52.30;;;;;;5118129;28;19930;-48
2021/12/16 04:27:14;;;;;;;;;;;21.70;52.30;;;;;;5118056;28;19924;-49
2021/12/16 04:29:41;;;;;;;;;;;21.70;52.30;;;;;;5099956;28;19930;-49
2021/12/16 04:32:09;;;;;;;;;;;21.70;52.30;;;;;;5116662;27;19923;-57
2021/12/16 04:34:36;;;;;;;;;;;21.70;52.30;;;;;;5117932;28;20272;-47
2021/12/16 04:37:03;;;;;;;;;;;21.70;52.30;;;;;;5117892;28;20341;-56
2021/12/16 04:39:32;;;;;;;;;;;21.70;52.30;;;;;;5117840;28;19928;-52
2021/12/16 04:41:59;;;;;;;;;;;21.70;52.30;;;;;;5117802;28;20303;-47
2021/12/16 04:44:27;;;;;;;;;;;21.70;52.30;;;;;;5117606;28;19923;-52
2021/12/16 04:46:55;;;;;;;;;;;21.70;52.30;;;;;;5117387;28;19931;-47
2021/12/16 04:49:22;;;;;;;;;;;21.70;52.90;;;;;;5116314;28;19931;-52
2021/12/16 04:51:51;;;;;;;;;;;21.70;52.30;;;;;;5117623;28;19931;-56
2021/12/16 04:54:20;;;;;;;;;;;21.70;52.30;;;;;;5117092;28;19938;-55
2021/12/16 04:56:47;;;;;;;;;;;21.70;52.30;;;;;;5117551;28;19924;-56
2021/12/16 04:59:16;;;;;;;;;;;21.70;52.30;;;;;;5117490;28;19924;-54
2021/12/16 05:01:45;;;;;;;;;;;21.70;52.30;;;;;;5117121;28;20375;-49
2021/12/16 05:04:12;;;;;;;;;;;21.70;52.30;;;;;;5116208;28;19923;-54
2021/12/16 05:06:40;;;;;;;;;;;21.70;52.30;;;;;;5115957;28;20012;-57
2021/12/16 05:09:08;;;;;;;;;;;21.70;52.30;;;;;;5116867;28;20379;-47
2021/12/16 05:11:36;;;;;;;;;;;21.70;52.30;;;;;;5116926;28;19927;-50
2021/12/16 05:14:04;;;;;;;;;;;21.70;52.30;;;;;;5117072;28;19930;-46
2021/12/16 05:16:31;;;;;;;;;;;21.70;52.30;;;;;;5116827;28;19924;-52
2021/12/16 05:18:58;;;;;;;;;;;21.70;52.30;;;;;;5115873;27;19932;-47
2021/12/16 05:21:49;;;;;;;;;;;21.70;52.30;;;;;;5116781;28;20014;-51
2021/12/16 05:24:25;;;;;;;;;;;21.70;52.30;;;;;;5102203;28;19924;-51
2021/12/16 05:26:55;;;;;;;;;;;21.70;52.30;;;;;;5116677;28;19924;-54
2021/12/16 05:29:23;;;;;;;;;;;21.70;52.30;;;;;;5116806;28;19946;-57
2021/12/16 05:31:50;;;;;;;;;;;21.70;52.90;;;;;;5116542;28;19928;-51
2021/12/16 05:34:17;;;;;;;;;;;21.70;52.30;;;;;;5115600;27;19924;-51
2021/12/16 05:36:45;;;;;;;;;;;21.60;52.20;;;;;;5116442;28;20496;-57
2021/12/16 05:39:13;;;;;;;;;;;21.70;52.30;;;;;;5116370;28;19927;-49
2021/12/16 05:41:40;;;;;;;;;;;21.70;52.30;;;;;;5116886;28;20398;-53
2021/12/16 05:44:08;;;;;;;;;;;21.70;52.30;;;;;;5116504;28;19973;-50
2021/12/16 05:46:37;;;;;;;;;;;21.70;52.40;;;;;;5116197;28;20325;-55
2021/12/16 05:49:07;;;;;;;;;;;21.70;52.30;;;;;;5115019;27;19931;-54
2021/12/16 05:51:35;;;;;;;;;;;21.70;52.30;;;;;;5116369;28;19931;-55
2021/12/16 05:54:03;;;;;;;;;;;21.60;52.20;;;;;;5116229;28;20286;-51
2021/12/16 05:56:30;;;;;;;;;;;21.70;52.30;;;;;;5116059;28;19977;-53
2021/12/16 05:58:58;;;;;;;;;;;21.60;52.20;;;;;;5115991;28;19931;-52
2021/12/16 06:01:29;;;;;;;;;;;21.70;52.40;;;;;;5116251;28;19990;-50
2021/12/16 06:03:57;;;;;;;;;;;21.60;52.20;;;;;;5114888;28;19932;-53
2021/12/16 06:06:26;;;;;;;;;;;21.60;52.20;;;;;;5115708;28;19924;-52
2021/12/16 06:08:54;;;;;;;;;;;21.60;52.30;;;;;;5115767;28;20375;-50
2021/12/16 06:11:26;;;;;;;;;;;21.60;52.20;;;;;;5115936;28;20332;-57
2021/12/16 06:14:18;;;;;;;;;;;21.60;52.30;;;;;;5115557;28;19973;-52
2021/12/16 06:27:52;;;;;;;;;;;21.60;52.30;;;;;;5115797;28;19958;-54
2021/12/16 06:30:22;;;;;;;;;;;21.60;52.30;;;;;;5115284;28;19927;-58
2021/12/16 06:32:49;;;;;;;;;;;21.60;52.30;;;;;;5115625;28;19930;-50
2021/12/16 06:35:16;;;;;;;;;;;21.60;52.30;;;;;;5114097;28;19924;-56
2021/12/16 06:37:43;;;;;;;;;;;21.60;52.30;;;;;;5115535;28;19928;-53
2021/12/16 06:40:10;;;;;;;;;;;21.60;52.30;;;;;;5115171;28;20383;-51
2021/12/16 06:42:40;;;;;;;;;;;21.60;52.30;;;;;;5115128;28;19924;-51
2021/12/16 06:45:13;;;;;;;;;;;21.60;52.30;;;;;;5114962;28;20284;-49
2021/12/16 06:47:48;;;;;;;;;;;21.60;52.30;;;;;;5097097;28;19927;-53
2021/12/16 06:50:26;;;;;;;;;;;21.60;52.30;;;;;;5113846;27;19923;-49
2021/12/16 06:52:58;;;;;;;;;;;21.60;52.30;;;;;;5114796;28;19924;-52
2021/12/16 06:55:36;;;;;;;;;;;21.60;52.30;;;;;;5114945;28;19924;-56
2021/12/16 07:00:47;;;;;;;;;;;21.60;52.30;;;;;;5115117;28;19924;-55
2021/12/16 07:03:21;;;;;;;;;;;21.60;52.30;;;;;;5114810;28;19924;-52
2021/12/16 07:05:52;;;;;;;;;;;21.60;52.30;;;;;;5113872;27;19946;-51
2021/12/16 07:08:21;;;;;;;;;;;21.60;52.30;;;;;;5114724;28;20395;-48
2021/12/16 07:10:49;;;;;;;;;;;21.60;52.20;;;;;;5114531;28;20382;-57
2021/12/16 07:13:19;;;;;;;;;;;21.60;52.30;;;;;;5114467;28;20423;-51
2021/12/16 07:15:47;;;;;;;;;;;21.60;52.30;;;;;;5096834;28;19923;-50
2021/12/16 07:18:14;;;;;;;;;;;21.60;52.30;;;;;;5114490;28;19931;-55
2021/12/16 07:20:42;;;;;;;;;;;21.60;52.20;;;;;;5113000;28;19924;-54
2021/12/16 07:23:10;;;;;;;;;;;21.60;52.20;;;;;;5114196;28;19932;-47
2021/12/16 07:25:37;;;;;;;;;;;21.60;52.20;;;;;;5114348;28;19924;-48
2021/12/16 07:28:07;;;;;;;;;;;21.60;52.20;;;;;;5114653;28;20280;-54
2021/12/16 07:30:39;;;;;;;;;;;21.60;52.20;;;;;;5113819;28;19924;-49
2021/12/16 07:33:07;;;;;;;;;;;21.60;52.20;;;;;;5096678;28;19927;-55
2021/12/16 07:35:36;;;;;;;;;;;21.60;52.20;;;;;;5126259;27;19923;-55
2021/12/16 07:38:04;;;;;;;;;;;21.60;52.20;;;;;;5135107;27;20305;-50
2021/12/16 07:40:32;;;;;;;;;;;21.60;52.20;;;;;;5134766;27;19924;-50
2021/12/16 07:43:11;;;;;;;;;;;21.60;52.20;;;;;;5134609;27;19930;-52
2021/12/16 07:45:43;;;;;;;;;;;21.60;52.20;;;;;;5134744;27;19930;-52
2021/12/16 07:48:11;;;;;;;;;;;21.60;52.20;;;;;;5134663;28;20298;-48
2021/12/16 07:50:40;;;;;;;;;;;21.60;52.20;;;;;;5119826;28;19931;-54
2021/12/16 07:53:07;;;;;;;;;;;21.70;52.20;;;;;;5114228;28;19924;-51
2021/12/16 07:55:34;;;;;;;;;;;21.60;52.20;;;;;;5114057;28;19924;-54
2021/12/16 07:58:03;;;;;;;;;;;21.70;52.20;;;;;;5114080;28;19931;-54
2021/12/16 08:00:33;;;;;;;;;;;21.70;52.20;;;;;;5113975;28;19935;-56
2021/12/16 08:03:06;;;;;;;;;;;21.70;52.20;;;;;;5113991;28;19935;-49
2021/12/16 08:05:36;;;;;;;;;;;21.70;52.20;;;;;;5112486;28;19931;-48
2021/12/16 08:08:03;;;;;;;;;;;21.70;52.20;;;;;;5113858;28;19930;-56
2021/12/16 08:10:33;;;;;;;;;;;21.70;52.20;;;;;;5113740;28;19969;-55
2021/12/16 08:13:00;;;;;;;;;;;21.70;52.20;;;;;;5114090;28;20010;-58
2021/12/16 08:15:27;;;;;;;;;;;21.70;52.10;;;;;;5114075;28;19946;-55
2021/12/16 08:17:55;;;;;;;;;;;21.70;52.10;;;;;;5114097;28;19973;-51
2021/12/16 08:20:23;;;;;;;;;;;21.70;52.10;;;;;;5112424;28;19930;-49
2021/12/16 08:22:51;;;;;;;;;;;21.70;52.10;;;;;;5113958;28;19970;-51
2021/12/16 08:25:20;;;;;;;;;;;21.70;52.10;;;;;;5114036;28;19944;-49
2021/12/16 08:27:47;;;;;;;;;;;21.70;52.00;;;;;;5113680;28;19924;-50
2021/12/16 08:30:16;;;;;;;;;;;21.70;52.00;;;;;;5114236;28;19934;-51
2021/12/16 08:32:44;;;;;;;;;;;21.70;52.00;;;;;;5113542;28;19931;-48
2021/12/16 08:35:12;;;;;;;;;;;21.70;52.00;;;;;;5112986;28;20044;-50
2021/12/16 08:37:39;;;;;;;;;;;21.70;52.00;;;;;;5113513;28;20030;-51
2021/12/16 08:40:09;;;;;;;;;;;21.70;52.00;;;;;;5096807;28;20259;-49
2021/12/16 08:42:35;;;;;;;;;;;21.70;52.00;;;;;;5117766;28;19923;-54
2021/12/16 08:45:05;;;;;;;;;;;21.70;52.00;;;;;;5117670;28;19924;-51
2021/12/16 08:47:32;;;;;;;;;;;21.70;52.00;;;;;;5117359;28;19924;-50
2021/12/16 08:50:00;;;;;;;;;;;21.70;51.90;;;;;;5116024;27;19939;-52
2021/12/16 08:52:27;;;;;;;;;;;21.70;52.50;;;;;;5099014;28;19931;-54
2021/12/16 08:54:54;;;;;;;;;;;21.70;51.90;;;;;;5117131;28;20386;-55
2021/12/16 08:57:25;;;;;;;;;;;21.70;51.90;;;;;;5117190;28;19924;-49
2021/12/16 08:59:52;;;;;;;;;;;21.70;51.90;;;;;;5117040;28;19923;-50
2021/12/16 09:02:20;;;;;;;;;;;21.70;51.90;;;;;;5117075;28;20291;-52
2021/12/16 09:04:47;;;;;;;;;;;21.70;51.80;;;;;;5116989;28;19972;-55
2021/12/16 09:07:15;;;;;;;;;;;21.80;51.90;;;;;;5116124;28;20026;-54
2021/12/16 09:09:43;;;;;;;;;;;21.80;51.90;;;;;;5117722;28;19924;-52
2021/12/16 09:12:26;;;;;;;;;;;21.80;51.90;;;;;;5116780;28;19928;-51
2021/12/16 09:14:53;;;;;;;;;;;21.80;51.80;;;;;;5116749;28;19927;-54
2021/12/16 09:17:20;;;;;;;;;;;21.80;51.80;;;;;;5117038;28;20006;-53
2021/12/16 09:19:49;;;;;;;;;;;21.80;51.80;;;;;;5117054;28;20001;-49
2021/12/16 09:22:17;;;;;;;;;;;21.80;51.80;;;;;;5115662;27;20264;-50
2021/12/16 09:24:45;;;;;;;;;;;21.80;51.80;;;;;;5116889;28;19923;-54
2021/12/16 09:27:13;;;;;;;;;;;21.80;51.70;;;;;;5116483;28;19969;-48
2021/12/16 09:29:41;;;;;;;;;;;21.80;51.70;;;;;;5116403;28;20394;-54
2021/12/16 09:32:08;;;;;;;;;;;21.80;51.70;;;;;;5116348;28;20371;-54
2021/12/16 09:34:36;;;;;;;;;;;21.80;51.60;;;;;;5098376;28;20398;-50
2021/12/16 09:37:04;;;;;;;;;;;21.80;51.60;;;;;;5115373;27;19949;-51
2021/12/16 09:39:31;;;;;;;;;;;21.80;51.60;;;;;;5116205;28;19927;-50
2021/12/16 09:42:00;;;;;;;;;;;21.80;51.60;;;;;;5116179;28;19977;-47
2021/12/16 09:44:28;;;;;;;;;;;21.90;51.70;;;;;;5116362;28;20337;-56
2021/12/16 09:46:56;;;;;;;;;;;21.80;51.60;;;;;;5116104;28;19954;-46
2021/12/16 09:49:24;;;;;;;;;;;21.80;51.60;;;;;;5116154;28;19936;-51
2021/12/16 09:51:52;;;;;;;;;;;21.80;51.60;;;;;;5114290;27;19924;-54
2021/12/16 09:54:23;;;;;;;;;;;21.80;51.60;;;;;;5115449;28;20402;-48
2021/12/16 09:56:51;;;;;;;;;;;21.80;51.60;;;;;;5116256;28;19935;-52
2021/12/16 09:59:19;;;;;;;;;;;21.80;51.70;;;;;;5097812;28;19924;-54
2021/12/16 10:01:49;;;;;;;;;;;21.80;51.60;;;;;;5115855;28;19927;-47
2021/12/16 10:04:20;;;;;;;;;;;21.80;51.70;;;;;;5116071;28;19963;-51
2021/12/16 10:06:49;;;;;;;;;;;21.80;51.70;;;;;;5115064;27;20006;-58
2021/12/16 10:09:16;;;;;;;;;;;21.80;51.70;;;;;;5115774;28;19931;-54
2021/12/16 10:11:49;;;;;;;;;;;21.80;51.70;;;;;;5097951;28;19923;-54
2021/12/16 10:14:32;;;;;;;;;;;21.90;51.80;;;;;;5115611;28;19924;-55
2021/12/16 10:19:46;;;;;;;;;;;21.80;51.70;;;;;;5114972;28;19924;-53
2021/12/16 10:22:22;;;;;;;;;;;21.80;51.70;;;;;;5113728;27;20444;-58
2021/12/16 10:24:50;;;;;;;;;;;21.80;51.70;;;;;;5115729;28;19977;-53
2021/12/16 10:27:26;;;;;;;;;;;21.80;51.70;;;;;;5115667;28;19947;-54
2021/12/16 10:29:54;;;;;;;;;;;21.80;51.70;;;;;;5115349;28;19931;-51
2021/12/16 10:32:37;;;;;;;;;;;21.80;51.70;;;;;;5115245;28;19972;-52
2021/12/16 10:35:11;;;;;;;;;;;21.80;51.70;;;;;;5115663;28;20344;-52
2021/12/16 10:37:41;;;;;;;;;;;21.90;51.80;;;;;;5114031;27;19977;-49
2021/12/16 10:40:26;;;;;;;;;;;21.80;51.70;;;;;;5115175;28;19923;-52
2021/12/16 10:42:54;;;;;;;;;;;21.80;51.70;;;;;;5115017;28;19924;-57
2021/12/16 10:45:41;;;;;;;;;;;21.80;51.70;;;;;;5115380;28;19928;-54
2021/12/16 10:48:19;;;;;;;;;;;21.80;51.70;;;;;;5097434;28;19930;-57
2021/12/16 10:50:55;;;;;;;;;;;21.80;51.70;;;;;;5114953;28;20391;-57
2021/12/16 10:53:41;;;;;;;;;;;21.80;51.70;;;;;;5114609;28;19959;-49
2021/12/16 10:56:08;;;;;;;;;;;21.80;51.70;;;;;;5114871;28;20391;-51
2021/12/16 10:58:54;;;;;;;;;;;21.80;51.70;;;;;;5114883;28;19927;-53
2021/12/16 11:01:39;;;;;;;;;;;21.80;51.70;;;;;;5115630;28;19928;-53
2021/12/16 11:04:09;;;;;;;;;;;21.80;51.60;;;;;;5096742;28;20307;-45
2021/12/16 11:06:39;;;;;;;;;;;21.90;51.70;;;;;;5113773;28;20073;-50
2021/12/16 11:09:22;;;;;;;;;;;21.80;51.60;;;;;;5114930;28;19923;-56
2021/12/16 11:12:04;;;;;;;;;;;21.80;51.60;;;;;;5115692;28;19924;-53
2021/12/16 11:14:31;;;;;;;;;;;21.80;51.50;;;;;;5114479;28;19934;-50
2021/12/16 11:16:59;;;;;;;;;;;21.80;51.50;;;;;;5114575;28;19999;-49
2021/12/16 11:19:45;;;;;;;;;;;21.80;51.50;;;;;;5114488;28;19923;-56
2021/12/16 11:22:14;;;;;;;;;;;21.80;51.50;;;;;;5112844;28;20306;-48
2021/12/16 11:24:41;;;;;;;;;;;21.80;51.50;;;;;;5114742;28;20040;-48
2021/12/16 11:27:19;;;;;;;;;;;21.90;51.50;;;;;;5096367;28;19972;-46
2021/12/16 11:29:46;;;;;;;;;;;21.80;51.50;;;;;;5114668;28;20011;-56
2021/12/16 11:32:32;;;;;;;;;;;21.80;51.50;;;;;;5114256;28;19923;-55
2021/12/16 11:34:59;;;;;;;;;;;21.80;51.40;;;;;;5114206;28;20394;-57
2021/12/16 11:37:26;;;;;;;;;;;21.90;51.50;;;;;;5113012;28;19969;-53
2021/12/16 11:39:53;;;;;;;;;;;21.90;51.50;;;;;;5114400;28;19924;-52
2021/12/16 11:42:26;;;;;;;;;;;21.90;51.40;;;;;;5114456;28;19924;-53
2021/12/16 11:44:53;;;;;;;;;;;21.90;51.40;;;;;;5114034;28;19923;-55
2021/12/16 11:47:22;;;;;;;;;;;21.90;51.40;;;;;;5114120;28;19931;-56
2021/12/16 11:49:49;;;;;;;;;;;21.90;51.40;;;;;;5114379;28;20329;-54
2021/12/16 11:52:22;;;;;;;;;;;21.90;51.40;;;;;;5112838;28;19928;-51
2021/12/16 11:54:53;;;;;;;;;;;21.90;51.40;;;;;;5114076;28;19924;-50
2021/12/16 11:57:26;;;;;;;;;;;21.90;51.40;;;;;;5114365;28;19946;-50
2021/12/16 11:59:55;;;;;;;;;;;21.90;52.00;;;;;;5113937;28;19930;-55
2021/12/16 12:02:34;;;;;;;;;;;21.90;51.40;;;;;;5114210;28;20011;-49
2021/12/16 12:05:13;;;;;;;;;;;21.90;51.40;;;;;;5113909;28;19928;-50
2021/12/16 12:07:41;;;;;;;;;;;21.90;51.40;;;;;;5112639;28;19923;-48
2021/12/16 12:10:08;;;;;;;;;;;21.90;51.40;;;;;;5095915;28;20420;-46
2021/12/16 12:12:41;;;;;;;;;;;21.90;51.40;;;;;;5113553;28;19923;-50
2021/12/16 12:15:09;;;;;;;;;;;21.90;51.40;;;;;;5114725;28;19924;-52
2021/12/16 12:17:49;;;;;;;;;;;21.90;51.40;;;;;;5130023;27;20000;-50
2021/12/16 12:20:30;;;;;;;;;;;21.90;51.40;;;;;;5120431;27;19935;-49
2021/12/16 12:23:16;;;;;;;;;;;21.90;51.50;;;;;;5125783;27;19969;-55
2021/12/16 12:26:17;;;;;;;;;;;21.90;51.40;;;;;;5101752;28;20375;-48
2021/12/16 12:29:19;;;;;;;;;;;21.90;51.40;;;;;;5117962;28;20302;-54
2021/12/16 12:31:49;;;;;;;;;;;21.90;51.40;;;;;;5117697;28;19930;-55
2021/12/16 12:34:17;;;;;;;;;;;21.90;51.40;;;;;;5100080;28;19931;-50
2021/12/16 12:36:45;;;;;;;;;;;21.90;51.50;;;;;;5117674;28;19923;-49
2021/12/16 12:39:15;;;;;;;;;;;21.80;51.40;;;;;;5115359;27;20302;-56
2021/12/16 12:41:44;;;;;;;;;;;21.80;51.40;;;;;;5138088;27;19924;-54
2021/12/16 12:44:11;;;;;;;;;;;21.80;51.40;;;;;;5137938;27;20390;-54
2021/12/16 12:46:39;;;;;;;;;;;21.90;51.50;;;;;;5137996;27;19924;-50
2021/12/16 12:49:09;;;;;;;;;;;21.80;51.40;;;;;;5138304;27;19927;-56
2021/12/16 12:51:38;;;;;;;;;;;21.90;51.50;;;;;;5137833;27;19924;-47
2021/12/16 12:54:25;;;;;;;;;;;21.90;51.50;;;;;;5120688;27;20390;-50
2021/12/16 12:56:54;;;;;;;;;;;21.80;51.40;;;;;;5117509;28;20332;-52
2021/12/16 12:59:31;;;;;;;;;;;21.80;51.50;;;;;;5117131;28;19934;-50
2021/12/16 13:01:58;;;;;;;;;;;21.80;51.50;;;;;;5117720;28;20355;-52
2021/12/16 13:04:28;;;;;;;;;;;21.80;51.50;;;;;;5117086;28;19931;-50
2021/12/16 13:06:55;;;;;;;;;;;21.80;51.50;;;;;;5116952;28;19924;-59
2021/12/16 13:09:22;;;;;;;;;;;21.80;51.50;;;;;;5115942;28;19931;-57
2021/12/16 13:11:49;;;;;;;;;;;21.80;51.60;;;;;;5116837;28;19927;-51
2021/12/16 13:14:29;;;;;;;;;;;21.80;51.60;;;;;;5117054;28;19928;-52
2021/12/16 13:23:19;;;;;;;;;;;21.80;51.60;;;;;;5116849;28;19930;-56
2021/12/16 13:28:56;;;;;;;;;;;21.80;51.60;;;;;;5100940;28;19931;-54
2021/12/16 13:31:36;;;;;;;;;;;21.80;51.70;;;;;;5115213;28;19927;-53
2021/12/16 13:34:03;;;;;;;;;;;21.80;51.70;;;;;;5116437;28;19923;-55
2021/12/16 13:36:44;;;;;;;;;;;21.80;51.70;;;;;;5117658;28;19927;-56
2021/12/16 13:39:12;;;;;;;;;;;21.80;51.80;;;;;;5115475;27;20260;-58
2021/12/16 13:41:54;;;;;;;;;;;21.80;51.70;;;;;;5116661;28;20040;-51
2021/12/16 13:44:35;;;;;;;;;;;21.70;51.70;;;;;;5116204;28;20390;-55
2021/12/16 13:47:34;;;;;;;;;;;21.70;51.70;;;;;;5116623;28;20341;-55
2021/12/16 13:59:28;;;;;;;;;;;21.70;51.80;;;;;;5116100;28;20421;-50
2021/12/16 14:01:39;;;;;;;;;;;21.70;51.80;;;;;;5115537;28;19963;-50
2021/12/16 14:04:41;;;;;;;;;;;21.70;51.80;;;;;;5116305;28;19969;-49
2021/12/16 14:09:59;;;;;;;;;;;21.70;51.80;;;;;;5114586;28;19924;-52
2021/12/16 14:15:17;;;;;;;;;;;21.70;51.90;;;;;;5115768;28;20370;-50
2021/12/16 14:23:10;;;;;;;;;;;21.70;51.90;;;;;;5115471;28;19938;-56
2021/12/16 14:39:38;;;;;;;;;;;21.60;51.90;;;;;;5113668;28;19924;-51
2021/12/16 14:45:28;;;;;;;;;;;21.60;51.90;;;;;;5114955;28;19927;-52
2021/12/16 14:48:07;;;;;;;;;;;21.60;52.00;;;;;;5096148;28;20271;-58
2021/12/16 14:50:40;;;;;;;;;;;21.60;52.00;;;;;;5115076;28;19969;-49
2021/12/16 14:53:21;;;;;;;;;;;21.60;52.00;;;;;;5114634;28;20397;-51
2021/12/16 14:55:49;;;;;;;;;;;21.60;52.00;;;;;;5113656;27;19931;-50
2021/12/16 14:58:21;;;;;;;;;;;21.60;52.00;;;;;;5114845;28;19931;-53
2021/12/16 15:00:52;;;;;;;;;;;21.60;52.00;;;;;;5115056;28;20275;-54
2021/12/16 15:03:22;;;;;;;;;;;21.60;52.00;;;;;;5115195;28;19924;-49
2021/12/16 15:05:52;;;;;;;;;;;21.60;52.10;;;;;;5115157;28;19924;-54
2021/12/16 15:08:25;;;;;;;;;;;21.60;52.10;;;;;;5114693;28;19930;-55
2021/12/16 15:10:52;;;;;;;;;;;21.60;52.10;;;;;;5113792;27;19932;-58
2021/12/16 15:13:33;;;;;;;;;;;21.60;52.10;;;;;;5114474;28;20298;-52
2021/12/16 15:38:39;;;;;;;;;;;21.60;52.20;;;;;;5114219;28;19931;-55
2021/12/16 15:43:56;;;;;;;;;;;21.60;52.20;;;;;;5114330;28;19928;-53
2021/12/16 15:46:28;;;;;;;;;;;21.50;52.10;;;;;;5114176;28;19930;-54
2021/12/16 15:48:56;;;;;;;;;;;21.50;52.10;;;;;;5114134;28;19924;-48
2021/12/16 15:51:24;;;;;;;;;;;21.50;52.10;;;;;;5113737;28;19931;-57
2021/12/16 15:53:55;;;;;;;;;;;21.50;52.20;;;;;;5113841;28;19928;-55
2021/12/16 15:56:26;;;;;;;;;;;21.50;52.20;;;;;;5112982;28;19923;-53
2021/12/16 15:59:00;;;;;;;;;;;21.50;52.20;;;;;;5114031;28;19939;-56
2021/12/16 16:01:31;;;;;;;;;;;21.50;52.20;;;;;;5114879;28;19938;-52
2021/12/16 16:04:00;;;;;;;;;;;21.50;52.20;;;;;;5114329;28;19924;-53
2021/12/16 16:06:28;;;;;;;;;;;21.50;52.20;;;;;;5114281;28;19931;-56
2021/12/16 16:09:01;;;;;;;;;;;21.50;52.20;;;;;;5095985;28;19930;-58
2021/12/16 16:11:30;;;;;;;;;;;21.50;52.20;;;;;;5113004;28;19928;-48
2021/12/16 16:14:00;;;;;;;;;;;21.50;52.20;;;;;;5113723;28;19927;-53
2021/12/16 16:16:32;;;;;;;;;;;21.50;52.20;;;;;;5113882;28;19924;-51
2021/12/16 16:19:03;;;;;;;;;;;21.50;52.20;;;;;;5113810;28;19928;-58
2021/12/16 16:21:32;;;;;;;;;;;21.50;52.20;;;;;;5114105;28;19924;-55
2021/12/16 16:24:03;;;;;;;;;;;21.50;52.20;;;;;;5113618;28;19924;-53
2021/12/16 16:26:34;;;;;;;;;;;21.50;52.20;;;;;;5112724;28;20291;-56
2021/12/16 16:29:07;;;;;;;;;;;21.50;52.20;;;;;;5113578;28;19935;-54
2021/12/16 16:31:34;;;;;;;;;;;21.50;52.20;;;;;;5113677;28;19924;-53
2021/12/16 16:34:07;;;;;;;;;;;21.50;52.20;;;;;;5113770;28;20029;-54
2021/12/16 16:36:38;;;;;;;;;;;21.50;52.20;;;;;;5114155;28;19923;-50
2021/12/16 16:39:08;;;;;;;;;;;21.50;52.20;;;;;;5095690;28;19923;-52
2021/12/16 16:41:44;;;;;;;;;;;21.50;52.20;;;;;;5094461;28;19973;-56
2021/12/16 16:44:13;;;;;;;;;;;21.40;52.20;;;;;;5113811;28;20287;-55
2021/12/16 16:46:46;;;;;;;;;;;21.50;52.20;;;;;;5113871;28;19923;-55
2021/12/16 16:49:49;;;;;;;;;;;21.40;52.20;;;;;;5113601;28;19969;-46
2021/12/16 16:52:18;;;;;;;;;;;21.40;52.20;;;;;;5011244;28;20395;-55
2021/12/16 16:55:11;;;;;;;;;;;21.40;52.20;;;;;;5011261;28;19926;-50
2021/12/16 16:57:40;;;;;;;;;;;21.50;52.20;;;;;;5029295;28;19932;-50
2021/12/16 17:00:07;;;;;;;;;;;21.40;52.20;;;;;;5030982;28;20020;-54
2021/12/16 17:02:38;;;;;;;;;;;21.50;52.30;;;;;;5033119;28;20270;-53
2021/12/16 17:05:12;;;;;;;;;;;21.40;52.20;;;;;;5034554;28;19925;-48
2021/12/16 17:07:39;;;;;;;;;;;21.40;52.20;;;;;;5034715;28;19925;-54
2021/12/16 17:10:18;;;;;;;;;;;21.50;52.30;;;;;;5032912;28;20399;-57
2021/12/16 17:12:45;;;;;;;;;;;21.40;52.20;;;;;;5014405;28;19968;-51
2021/12/16 17:15:31;;;;;;;;;;;21.40;52.20;;;;;;5014517;28;19929;-50
2021/12/16 17:17:58;;;;;;;;;;;21.40;52.20;;;;;;5014543;28;20121;-49
2021/12/16 17:20:25;;;;;;;;;;;21.40;52.20;;;;;;5014995;28;19953;-53
2021/12/16 17:22:54;;;;;;;;;;;21.40;52.20;;;;;;5014231;28;19933;-53
2021/12/16 17:25:22;;;;;;;;;;;21.40;52.20;;;;;;5025795;27;20332;-56
2021/12/16 17:27:53;;;;;;;;;;;21.40;52.20;;;;;;5116684;28;19977;-47
2021/12/16 17:30:24;;;;;;;;;;;21.40;52.20;;;;;;5116646;28;19931;-47
2021/12/16 17:32:52;;;;;;;;;;;21.40;52.20;;;;;;5116521;28;19923;-48
2021/12/16 17:35:25;;;;;;;;;;;21.40;52.20;;;;;;5116855;28;19924;-55
2021/12/16 17:37:59;;;;;;;;;;;21.40;52.20;;;;;;5117391;28;19931;-49
2021/12/16 17:40:37;;;;;;;;;;;21.40;52.20;;;;;;5115648;27;19927;-55
2021/12/16 17:43:08;;;;;;;;;;;21.40;52.20;;;;;;5116289;28;19924;-53
2021/12/16 17:45:41;;;;;;;;;;;21.40;52.20;;;;;;5116333;28;20394;-52
2021/12/16 17:48:10;;;;;;;;;;;21.40;52.20;;;;;;5098594;28;19927;-47
2021/12/16 17:55:51;;;;;;;;;;;21.40;52.20;;;;;;5098991;27;19923;-45
2021/12/16 17:58:22;;;;;;;;;;;21.40;52.20;;;;;;5136702;27;20370;-48
2021/12/16 18:00:54;;;;;;;;;;;21.40;52.20;;;;;;5137297;27;19923;-57
2021/12/16 18:03:25;;;;;;;;;;;21.40;52.20;;;;;;5136630;27;19972;-49
2021/12/16 18:05:54;;;;;;;;;;;21.40;52.20;;;;;;5136907;27;20313;-54
2021/12/16 18:08:22;;;;;;;;;;;21.40;52.20;;;;;;5136792;27;19923;-48
2021/12/16 18:10:49;;;;;;;;;;;21.40;52.30;;;;;;5133290;27;19923;-47
2021/12/16 18:13:16;;;;;;;;;;;21.40;52.20;;;;;;5114992;28;19924;-50
2021/12/16 18:15:44;;;;;;;;;;;21.40;52.20;;;;;;5097778;28;20304;-52
2021/12/16 18:18:13;;;;;;;;;;;21.40;52.20;;;;;;5115677;28;19931;-55
2021/12/16 18:20:43;;;;;;;;;;;21.40;52.20;;;;;;5115475;28;19923;-49
2021/12/16 18:23:19;;;;;;;;;;;21.40;52.20;;;;;;5115446;28;19977;-56
2021/12/16 18:25:48;;;;;;;;;;;21.40;52.30;;;;;;5115745;28;19924;-51
2021/12/16 18:28:22;;;;;;;;;;;21.40;52.30;;;;;;5114752;28;20189;-54
2021/12/16 18:33:22;;;;;;;;;;;21.40;52.20;;;;;;5097999;28;19924;-52
2021/12/16 18:35:53;;;;;;;;;;;21.40;52.20;;;;;;5115724;28;19924;-54